Time;durP1;ratioP1;P1;durP2;ratioP2;P2;SDS_P1;SDS_P2;PMS_P1;PMS_P2;Temp;Humidity;BMP_temperature;BMP_pressure;BME280_temperature;BME280_humidity;BME280_pressure;Samples;Min_cycle;Max_cycle;Signal;HPM_P1;HPM_P2
2021/12/06 00:01:14;;;;;;;6.53;1.85;;;8.20;86.10;;;;;;5086178;28;20491;-66
2021/12/06 00:04:01;;;;;;;8.55;1.70;;;8.20;86.10;;;;;;5084451;28;20032;-66
2021/12/06 00:06:28;;;;;;;10.13;1.92;;;8.20;86.10;;;;;;5083460;28;20078;-67
2021/12/06 00:08:55;;;;;;;9.43;1.80;;;8.20;86.10;;;;;;5085814;28;20089;-66
2021/12/06 00:11:21;;;;;;;9.90;1.73;;;8.20;86.00;;;;;;5090314;28;20548;-66
2021/12/06 00:13:49;;;;;;;10.45;1.70;;;8.20;86.10;;;;;;5087059;28;20399;-67
2021/12/06 00:16:19;;;;;;;10.75;2.63;;;8.20;86.20;;;;;;5087521;28;20074;-67
2021/12/06 00:18:47;;;;;;;10.18;2.10;;;8.20;86.10;;;;;;5088435;28;20127;-66
2021/12/06 00:21:12;;;;;;;10.30;2.10;;;8.20;86.20;;;;;;5087374;28;20052;-66
2021/12/06 00:23:39;;;;;;;11.93;2.58;;;8.20;86.10;;;;;;5081704;28;20446;-66
2021/12/06 00:26:06;;;;;;;12.90;2.15;;;8.20;86.10;;;;;;5086539;28;20402;-67
2021/12/06 00:28:32;;;;;;;9.27;2.50;;;8.20;86.40;;;;;;5088669;28;20036;-66
2021/12/06 00:30:59;;;;;;;12.48;3.28;;;8.20;86.00;;;;;;5087391;28;20028;-66
2021/12/06 00:33:27;;;;;;;12.70;2.78;;;8.20;86.00;;;;;;5090039;28;20073;-66
2021/12/06 00:35:57;;;;;;;14.32;2.53;;;8.20;86.00;;;;;;5075092;28;20051;-66
2021/12/06 00:38:23;;;;;;;7.47;2.25;;;8.20;85.90;;;;;;5089770;28;20411;-66
2021/12/06 00:40:50;;;;;;;10.23;2.47;;;8.20;86.00;;;;;;5089250;28;20502;-67
2021/12/06 00:43:15;;;;;;;9.40;2.65;;;8.20;86.00;;;;;;5089072;28;20397;-66
2021/12/06 00:45:43;;;;;;;21.55;7.95;;;8.20;86.00;;;;;;5088709;28;20036;-67
2021/12/06 00:48:09;;;;;;;22.15;9.32;;;8.20;86.00;;;;;;5089344;28;20021;-66
2021/12/06 00:50:38;;;;;;;16.92;5.40;;;8.20;85.90;;;;;;5084549;28;20128;-66
2021/12/06 00:53:05;;;;;;;15.02;3.08;;;8.20;86.00;;;;;;5077804;28;20190;-66
2021/12/06 00:55:31;;;;;;;10.77;2.42;;;8.20;86.00;;;;;;5086235;28;20036;-66
2021/12/06 00:57:57;;;;;;;11.60;2.80;;;8.20;86.00;;;;;;5087250;28;20045;-67
2021/12/06 01:00:28;;;;;;;9.35;2.70;;;8.20;86.00;;;;;;5088908;28;20028;-66
2021/12/06 01:02:55;;;;;;;10.55;2.65;;;8.20;86.00;;;;;;5074569;28;20505;-67
2021/12/06 01:05:23;;;;;;;11.30;2.22;;;8.20;86.00;;;;;;5089043;28;20081;-66
2021/12/06 01:07:50;;;;;;;13.07;2.58;;;8.10;86.10;;;;;;5090038;28;20032;-66
2021/12/06 01:10:17;;;;;;;10.00;2.40;;;8.10;86.10;;;;;;5089377;28;20039;-66
2021/12/06 01:12:44;;;;;;;9.95;2.42;;;8.20;86.30;;;;;;5085276;28;20032;-66
2021/12/06 01:15:10;;;;;;;10.15;2.65;;;8.20;86.30;;;;;;5089195;28;20056;-66
2021/12/06 01:17:36;;;;;;;7.25;2.78;;;8.20;86.30;;;;;;5090505;28;20028;-67
2021/12/06 01:20:10;;;;;;;9.05;2.72;;;8.20;86.20;;;;;;5077240;28;20040;-66
2021/12/06 01:22:44;;;;;;;11.50;2.85;;;8.20;86.20;;;;;;5076073;28;20510;-67
2021/12/06 01:25:24;;;;;;;7.45;2.33;;;8.20;86.20;;;;;;5075486;28;20024;-66
2021/12/06 01:28:18;;;;;;;9.40;2.50;;;8.20;86.20;;;;;;5083945;28;20017;-66
2021/12/06 01:33:31;;;;;;;6.25;2.50;;;8.20;86.40;;;;;;5088416;28;20438;-66
2021/12/06 01:41:22;;;;;;;7.28;2.38;;;8.20;86.60;;;;;;5028414;28;20036;-66
2021/12/06 01:44:02;;;;;;;8.77;2.38;;;8.10;86.60;;;;;;5027886;28;20048;-66
2021/12/06 01:46:29;;;;;;;10.23;2.35;;;8.20;86.70;;;;;;5026338;28;20080;-66
2021/12/06 01:48:55;;;;;;;10.75;2.28;;;8.10;86.70;;;;;;5025857;28;20029;-66
2021/12/06 01:51:23;;;;;;;9.82;2.60;;;8.20;86.80;;;;;;5018438;28;20118;-66
2021/12/06 01:53:49;;;;;;;10.18;2.45;;;8.10;86.70;;;;;;5016735;28;20056;-66
2021/12/06 01:56:15;;;;;;;6.97;2.30;;;8.10;86.80;;;;;;5027717;28;20166;-66
2021/12/06 01:58:42;;;;;;;19.52;13.85;;;8.10;86.80;;;;;;5027519;28;20552;-67
2021/12/06 02:01:08;;;;;;;14.60;7.63;;;8.10;86.90;;;;;;5028023;28;20021;-67
2021/12/06 02:03:34;;;;;;;13.38;3.53;;;8.10;86.90;;;;;;5027474;28;20080;-66
2021/12/06 02:06:00;;;;;;;13.10;3.17;;;8.10;86.90;;;;;;5020909;28;20025;-67
2021/12/06 17:50:11;;;;;;;14.77;3.47;;;8.10;92.50;;;;;;5075972;27;20424;-66
2021/12/06 17:52:37;;;;;;;17.83;4.20;;;8.00;93.10;;;;;;5066883;28;20518;-67
2021/12/06 17:55:07;;;;;;;20.77;4.15;;;8.00;93.20;;;;;;5073429;28;20135;-66
2021/12/06 17:57:41;;;;;;;17.52;3.97;;;8.00;93.30;;;;;;5059149;28;20036;-67
2021/12/06 18:00:11;;;;;;;21.63;4.30;;;8.00;93.20;;;;;;5073408;28;20032;-66
2021/12/06 18:02:37;;;;;;;18.90;4.75;;;8.00;93.20;;;;;;5050454;28;20028;-67
2021/12/06 18:05:04;;;;;;;21.50;4.97;;;8.00;93.10;;;;;;5069680;28;20484;-66
2021/12/06 18:07:30;;;;;;;20.88;4.50;;;7.90;93.00;;;;;;5062743;28;20025;-66
2021/12/06 18:09:56;;;;;;;19.80;5.28;;;7.90;92.90;;;;;;5059617;28;20037;-66
2021/12/06 18:12:22;;;;;;;15.25;5.03;;;7.90;92.90;;;;;;5058788;28;20104;-67
2021/12/06 18:14:48;;;;;;;17.35;4.72;;;7.90;92.80;;;;;;5057364;28;20086;-67
2021/12/06 18:17:16;;;;;;;18.40;4.15;;;7.90;92.70;;;;;;5067531;28;20016;-67
2021/12/06 18:19:44;;;;;;;16.65;4.70;;;7.90;92.60;;;;;;5053310;28;20083;-67
2021/12/06 18:22:10;;;;;;;17.13;4.60;;;7.90;92.50;;;;;;5055524;28;20047;-67
2021/12/06 18:24:37;;;;;;;16.67;4.80;;;7.90;92.40;;;;;;5062316;28;20492;-67
2021/12/06 18:27:05;;;;;;;19.02;4.30;;;7.90;92.30;;;;;;5065286;28;20029;-66
2021/12/06 18:29:32;;;;;;;21.40;4.60;;;7.80;92.30;;;;;;5064592;28;20600;-66
2021/12/06 18:31:58;;;;;;;18.20;5.22;;;7.80;92.20;;;;;;5065152;28;20029;-66
2021/12/06 18:34:24;;;;;;;18.73;5.20;;;7.70;92.10;;;;;;5055537;28;20037;-66
2021/12/06 18:36:50;;;;;;;22.00;5.30;;;7.60;92.10;;;;;;5055706;28;20028;-66
2021/12/06 18:39:22;;;;;;;21.83;5.50;;;7.60;92.10;;;;;;5062081;28;20100;-66
2021/12/06 18:41:48;;;;;;;15.43;5.13;;;7.60;92.20;;;;;;5054675;28;20028;-66
2021/12/06 18:44:35;;;;;;;19.70;5.40;;;7.50;92.20;;;;;;5068350;28;20119;-66
2021/12/06 18:47:04;;;;;;;17.88;5.15;;;7.50;92.20;;;;;;5063627;28;20064;-66
2021/12/06 18:49:31;;;;;;;22.90;7.72;;;7.40;92.10;;;;;;5053764;28;20045;-67
2021/12/06 18:51:57;;;;;;;28.75;13.45;;;7.30;92.10;;;;;;5056076;28;20468;-66
2021/12/06 18:54:23;;;;;;;21.15;10.27;;;7.20;92.20;;;;;;5049973;28;20074;-66
2021/12/06 18:56:49;;;;;;;24.85;7.00;;;7.10;92.20;;;;;;5055165;28;20071;-66
2021/12/06 18:59:16;;;;;;;23.85;7.10;;;7.10;92.20;;;;;;5064420;28;20016;-66
2021/12/06 19:01:42;;;;;;;14.60;6.80;;;7.10;92.20;;;;;;5045400;28;20024;-66
2021/12/06 19:04:08;;;;;;;17.60;6.70;;;7.00;92.20;;;;;;5044685;28;20092;-66
2021/12/06 19:06:37;;;;;;;16.02;6.68;;;6.90;92.10;;;;;;5044541;28;20028;-66
2021/12/06 19:09:05;;;;;;;16.45;6.00;;;6.90;92.10;;;;;;5049594;28;20037;-66
2021/12/06 19:11:36;;;;;;;20.17;10.60;;;6.80;92.00;;;;;;5051140;28;20496;-66
2021/12/06 19:14:02;;;;;;;23.08;8.15;;;6.70;92.00;;;;;;5047409;28;20399;-66
2021/12/06 19:16:28;;;;;;;25.05;6.72;;;6.70;92.00;;;;;;5049318;28;20024;-66
2021/12/06 19:18:54;;;;;;;25.27;6.75;;;6.60;92.10;;;;;;5052556;28;20029;-66
2021/12/06 19:21:19;;;;;;;23.27;7.20;;;6.60;92.20;;;;;;5041065;28;20056;-66
2021/12/06 19:23:48;;;;;;;25.92;6.40;;;6.60;92.20;;;;;;5045078;28;20033;-67
2021/12/06 19:26:15;;;;;;;23.30;6.20;;;6.50;92.30;;;;;;5047260;28;20520;-66
2021/12/06 19:28:42;;;;;;;23.90;6.95;;;6.50;92.50;;;;;;5050625;28;20049;-66
2021/12/06 19:31:09;;;;;;;20.42;6.68;;;6.60;92.90;;;;;;5048139;28;20053;-66
2021/12/06 19:33:35;;;;;;;22.83;7.10;;;6.80;93.20;;;;;;5044001;28;20550;-66
2021/12/06 19:36:08;;;;;;;22.70;5.82;;;6.90;93.30;;;;;;5036074;28;20037;-66
2021/12/06 19:38:36;;;;;;;24.27;7.03;;;7.00;93.20;;;;;;5049306;28;20029;-66
2021/12/06 19:41:03;;;;;;;24.00;5.30;;;7.10;93.10;;;;;;5035023;28;20044;-66
2021/12/06 19:43:29;;;;;;;21.13;5.00;;;7.10;93.10;;;;;;5034733;28;20056;-66
2021/12/06 19:45:57;;;;;;;26.00;4.90;;;7.20;93.10;;;;;;5039482;28;20373;-66
2021/12/06 19:48:25;;;;;;;19.30;3.88;;;7.20;93.10;;;;;;5035027;28;20041;-66
2021/12/06 19:50:51;;;;;;;27.70;4.50;;;7.30;93.10;;;;;;5050022;28;20818;-66
2021/12/06 19:53:18;;;;;;;17.02;3.20;;;7.40;92.90;;;;;;5051775;28;20024;-66
2021/12/06 19:55:47;;;;;;;19.30;3.47;;;7.50;92.80;;;;;;5036229;28;20048;-66
2021/12/06 19:58:15;;;;;;;23.58;4.00;;;7.60;92.60;;;;;;5034997;28;20438;-66
2021/12/06 20:00:42;;;;;;;16.13;4.68;;;7.60;92.40;;;;;;5034719;28;20029;-66
2021/12/06 20:03:11;;;;;;;18.27;3.92;;;7.60;92.20;;;;;;5042462;28;20732;-66
2021/12/06 20:05:37;;;;;;;19.10;3.88;;;7.60;92.00;;;;;;5050404;28;20059;-66
2021/12/06 20:08:06;;;;;;;20.48;4.20;;;7.50;91.90;;;;;;5054982;28;20484;-66
2021/12/06 20:10:33;;;;;;;22.60;4.38;;;7.50;91.90;;;;;;5044915;28;20044;-66
2021/12/06 20:12:59;;;;;;;20.20;3.85;;;7.40;91.90;;;;;;5041382;28;20074;-66
2021/12/06 20:15:27;;;;;;;18.48;4.40;;;7.30;91.90;;;;;;5046809;28;20112;-66
2021/12/06 20:17:53;;;;;;;26.25;4.95;;;7.20;91.90;;;;;;5047458;28;20044;-67
2021/12/06 20:20:20;;;;;;;25.83;5.28;;;7.20;91.90;;;;;;5045638;28;20062;-66
2021/12/06 20:22:45;;;;;;;21.13;5.15;;;7.10;92.00;;;;;;5049450;28;20041;-66
2021/12/06 20:25:15;;;;;;;21.83;4.78;;;7.00;92.00;;;;;;5046715;28;20036;-66
2021/12/06 20:27:43;;;;;;;17.75;4.72;;;7.00;92.00;;;;;;5045432;28;20033;-66
2021/12/06 20:30:11;;;;;;;21.42;4.57;;;6.90;92.00;;;;;;5046010;28;20033;-66
2021/12/06 20:32:37;;;;;;;17.92;4.70;;;6.80;92.00;;;;;;5034000;28;20018;-66
2021/12/06 20:35:05;;;;;;;28.70;5.07;;;6.80;92.00;;;;;;5047946;28;20025;-66
2021/12/06 20:37:31;;;;;;;18.98;5.03;;;6.70;92.00;;;;;;5056078;28;20095;-66
2021/12/06 20:39:57;;;;;;;25.70;5.70;;;6.60;92.00;;;;;;5048004;28;20031;-67
2021/12/06 20:42:23;;;;;;;21.42;6.07;;;6.60;92.00;;;;;;5045508;28;20056;-67
2021/12/06 20:44:51;;;;;;;21.85;5.53;;;6.50;92.00;;;;;;5042156;28;20481;-67
2021/12/06 20:47:18;;;;;;;22.58;5.32;;;6.50;92.10;;;;;;5047971;28;20032;-65
2021/12/06 20:49:45;;;;;;;20.55;5.07;;;6.40;92.10;;;;;;5035941;28;20071;-64
2021/12/06 20:52:12;;;;;;;25.77;4.78;;;6.40;92.20;;;;;;5037982;28;20029;-65
2021/12/06 20:54:40;;;;;;;27.60;5.00;;;6.30;92.20;;;;;;5037182;28;20500;-65
2021/12/06 20:57:07;;;;;;;19.05;4.82;;;6.30;92.30;;;;;;5038401;28;20024;-65
2021/12/06 20:59:33;;;;;;;26.70;5.10;;;6.30;92.30;;;;;;5064250;28;20486;-64
2021/12/06 21:02:01;;;;;;;19.02;4.78;;;6.30;92.30;;;;;;5047856;28;20025;-64
2021/12/06 21:04:28;;;;;;;25.95;4.85;;;6.30;92.40;;;;;;5035225;28;20420;-64
2021/12/06 21:06:54;;;;;;;18.92;4.13;;;6.30;92.50;;;;;;5045462;28;20029;-64
2021/12/06 21:09:22;;;;;;;23.05;4.53;;;6.30;92.60;;;;;;5044700;28;20045;-64
2021/12/06 21:12:02;;;;;;;16.63;3.90;;;6.30;92.70;;;;;;5045659;28;20155;-65
2021/12/06 21:14:50;;;;;;;24.58;4.43;;;6.40;92.70;;;;;;5048934;28;20029;-65
2021/12/06 21:17:17;;;;;;;23.92;4.35;;;6.40;92.60;;;;;;5050495;28;20048;-65
2021/12/06 21:19:48;;;;;;;21.38;4.43;;;6.40;92.60;;;;;;5047767;28;20092;-65
2021/12/06 21:22:14;;;;;;;21.60;3.95;;;6.40;92.60;;;;;;5045914;28;20036;-65
2021/12/06 21:24:40;;;;;;;20.52;4.05;;;6.40;92.60;;;;;;5044961;28;20029;-65
2021/12/06 21:27:07;;;;;;;18.48;4.43;;;6.40;92.60;;;;;;5039886;28;20036;-65
2021/12/06 21:29:33;;;;;;;20.73;3.50;;;6.40;92.70;;;;;;5033454;28;20034;-65
2021/12/06 21:31:58;;;;;;;22.73;3.97;;;6.40;92.60;;;;;;5035606;28;20040;-65
2021/12/06 21:34:25;;;;;;;22.80;3.88;;;6.40;92.70;;;;;;5047488;28;20064;-65
2021/12/06 21:36:51;;;;;;;24.27;3.90;;;6.40;92.80;;;;;;5051678;28;20071;-65
2021/12/06 21:39:17;;;;;;;23.17;4.13;;;6.40;92.80;;;;;;5053301;28;20369;-64
2021/12/06 21:41:43;;;;;;;22.42;3.88;;;6.50;92.80;;;;;;5049345;28;20626;-65
2021/12/06 21:44:13;;;;;;;24.63;4.03;;;6.50;92.80;;;;;;5053677;28;20033;-65
2021/12/06 21:46:39;;;;;;;16.83;5.20;;;6.50;92.70;;;;;;5038187;28;20030;-65
2021/12/06 21:49:09;;;;;;;21.52;4.85;;;6.40;92.60;;;;;;5044754;28;20526;-65
2021/12/06 21:51:41;;;;;;;24.08;5.68;;;6.40;92.50;;;;;;5045418;28;20020;-65
2021/12/06 21:54:11;;;;;;;20.15;5.22;;;6.40;92.40;;;;;;5038228;28;20021;-65
2021/12/06 21:56:39;;;;;;;24.00;5.53;;;6.30;92.40;;;;;;5032555;28;20056;-65
2021/12/06 21:59:09;;;;;;;23.15;6.20;;;6.30;92.40;;;;;;5035231;28;20048;-65
2021/12/06 22:01:39;;;;;;;22.27;5.70;;;6.20;92.40;;;;;;5034894;28;20072;-65
2021/12/06 22:06:39;;;;;;;25.75;3.28;;;6.20;92.40;;;;;;5045123;28;20116;-65
2021/12/06 22:09:10;;;;;;;25.95;4.00;;;6.10;92.40;;;;;;5031224;28;20047;-65
2021/12/06 22:11:39;;;;;;;19.08;3.53;;;6.10;92.50;;;;;;5032487;28;20026;-65
2021/12/06 22:14:10;;;;;;;21.73;3.78;;;6.10;92.50;;;;;;5035322;28;20051;-65
2021/12/06 22:16:44;;;;;;;20.80;3.85;;;6.10;92.50;;;;;;5034684;28;20076;-65
2021/12/06 22:19:13;;;;;;;26.15;3.58;;;6.10;92.50;;;;;;5044234;28;20033;-65
2021/12/06 22:21:45;;;;;;;20.42;3.63;;;6.00;92.50;;;;;;5045053;28;20013;-65
2021/12/06 22:24:15;;;;;;;23.83;4.13;;;6.00;92.50;;;;;;5049637;28;20051;-65
2021/12/06 22:26:41;;;;;;;22.25;3.47;;;5.90;92.40;;;;;;5050076;28;20021;-65
2021/12/06 22:29:07;;;;;;;22.35;3.60;;;5.90;92.40;;;;;;5047400;28;20045;-65
2021/12/06 22:31:33;;;;;;;22.02;3.25;;;5.90;92.50;;;;;;5037591;28;20396;-65
2021/12/06 22:33:59;;;;;;;17.52;2.83;;;5.90;93.00;;;;;;5034894;28;20414;-65
2021/12/06 22:36:29;;;;;;;21.90;3.13;;;5.90;92.60;;;;;;5036823;28;20044;-65
2021/12/06 22:38:54;;;;;;;17.80;3.00;;;5.90;92.70;;;;;;5046359;28;20044;-65
2021/12/06 22:41:20;;;;;;;22.58;3.53;;;5.90;92.70;;;;;;5052904;28;20021;-65
2021/12/06 22:43:46;;;;;;;21.00;2.90;;;5.90;92.70;;;;;;5039308;28;20458;-65
2021/12/06 22:46:12;;;;;;;16.15;2.83;;;5.90;92.70;;;;;;5041472;28;20025;-65
2021/12/06 22:48:37;;;;;;;18.55;2.80;;;5.80;92.70;;;;;;5048577;28;20079;-65
2021/12/06 22:51:04;;;;;;;15.07;2.75;;;5.90;92.70;;;;;;5049770;28;20105;-65
2021/12/06 22:53:30;;;;;;;20.13;3.10;;;5.90;92.80;;;;;;5052513;28;20135;-65
2021/12/06 22:55:56;;;;;;;21.25;3.40;;;5.90;92.80;;;;;;5051169;28;20104;-65
2021/12/06 22:58:22;;;;;;;17.35;2.83;;;5.90;92.70;;;;;;5048928;28;20037;-65
2021/12/06 23:00:53;;;;;;;15.00;2.60;;;5.80;92.70;;;;;;5046684;28;20032;-65
2021/12/06 23:03:19;;;;;;;15.90;2.67;;;5.80;92.70;;;;;;5036464;28;20072;-65
2021/12/06 23:05:45;;;;;;;24.15;3.95;;;5.80;92.70;;;;;;5043325;28;20541;-65
2021/12/06 23:08:11;;;;;;;18.63;2.85;;;5.80;92.70;;;;;;5052429;28;20029;-65
2021/12/06 23:10:37;;;;;;;19.45;3.22;;;5.80;92.70;;;;;;5041096;28;20026;-65
2021/12/06 23:13:03;;;;;;;16.95;2.75;;;5.80;92.70;;;;;;5041672;28;20494;-65
2021/12/06 23:15:32;;;;;;;22.05;2.92;;;5.80;92.60;;;;;;5043148;28;20021;-65
2021/12/06 23:18:00;;;;;;;19.90;3.20;;;5.80;92.60;;;;;;5048926;28;20096;-65
2021/12/06 23:20:26;;;;;;;16.55;3.03;;;5.80;92.70;;;;;;5053145;28;20036;-65
2021/12/06 23:22:53;;;;;;;20.13;3.03;;;5.80;92.70;;;;;;5046188;28;20025;-65
2021/12/06 23:25:19;;;;;;;20.60;3.35;;;5.80;92.80;;;;;;5043908;28;20025;-65
2021/12/06 23:27:48;;;;;;;16.48;2.80;;;5.80;92.80;;;;;;5048269;28;20025;-65
2021/12/06 23:30:17;;;;;;;26.45;3.95;;;5.80;92.70;;;;;;5048340;28;20029;-65
2021/12/06 23:32:45;;;;;;;23.42;3.22;;;5.80;92.70;;;;;;5058972;28;20020;-65
2021/12/06 23:35:15;;;;;;;20.35;3.03;;;5.80;92.70;;;;;;5043870;28;20040;-65
2021/12/06 23:37:48;;;;;;;23.20;3.20;;;5.80;92.80;;;;;;5054182;28;20028;-66
2021/12/06 23:40:35;;;;;;;19.42;3.03;;;5.80;92.80;;;;;;5045495;28;20080;-65
2021/12/06 23:46:16;;;;;;;16.50;3.00;;;5.70;92.70;;;;;;5048560;28;20031;-65
2021/12/06 23:48:43;;;;;;;25.88;3.40;;;5.70;92.70;;;;;;5045902;28;20128;-65
2021/12/06 23:51:08;;;;;;;20.65;3.60;;;5.70;92.80;;;;;;5061189;28;20033;-65
2021/12/06 23:53:34;;;;;;;25.17;3.20;;;5.60;92.70;;;;;;5035204;28;20033;-65
2021/12/06 23:56:02;;;;;;;20.98;3.35;;;5.60;92.70;;;;;;5038136;28;20404;-65
2021/12/06 23:58:28;;;;;;;18.98;3.33;;;5.60;92.80;;;;;;5050450;28;20033;-65
